DLH3TW EDDS-EDDK
Flight info
| Callsign | DLH3TW |
|---|---|
| Flight time | 0h 31m |
| Altitude | 22000 |
| Route | TAGIK4B TAGIK Z3 VATAK T840 GULKO GULKO1C |
| Aircraft | A320/M-SDE3FGHIRWY/LB1 |
Departure
| Time | 2026-04-25 09:08 |
|---|---|
| Airport | Stuttgart Airport (EDDS) |
Arrival
| Time | 2026-04-25 09:40 |
|---|---|
| Airport | Cologne Bonn Airport (EDDK) |
| Time | Latitude | Longitude | Altitude | Speed | Heading |
|---|---|---|---|---|---|
| 2026-04-25 08:43 | 48.68984 | 9.20416 | 1288 ft | 0 kts | 164° |
| 2026-04-25 09:05 | 48.68961 | 9.20427 | 1287 ft | 11 kts | 164° |
| 2026-04-25 09:05 | 48.68904 | 9.20376 | 1286 ft | 10 kts | 252° |
| 2026-04-25 09:06 | 48.68885 | 9.20281 | 1289 ft | 10 kts | 253° |
| 2026-04-25 09:06 | 48.68866 | 9.20182 | 1291 ft | 14 kts | 253° |
| 2026-04-25 09:06 | 48.68837 | 9.20033 | 1294 ft | 13 kts | 251° |
| 2026-04-25 09:06 | 48.68772 | 9.19967 | 1293 ft | 12 kts | 186° |
| 2026-04-25 09:07 | 48.68686 | 9.19985 | 1289 ft | 14 kts | 163° |
| 2026-04-25 09:07 | 48.68603 | 9.20082 | 1283 ft | 18 kts | 111° |
| 2026-04-25 09:07 | 48.68624 | 9.20277 | 1278 ft | 21 kts | 74° |
| 2026-04-25 09:07 | 48.68630 | 9.20309 | 1277 ft | 1 kts | 73° |
| 2026-04-25 09:08 | 48.68651 | 9.20420 | 1276 ft | 24 kts | 73° |
| 2026-04-25 09:08 | 48.68764 | 9.21001 | 1266 ft | 93 kts | 73° |
| 2026-04-25 09:08 | 48.69020 | 9.22239 | 1272 ft | 148 kts | 72° |
| 2026-04-25 09:08 | 48.69314 | 9.23727 | 1890 ft | 148 kts | 74° |
| 2026-04-25 09:09 | 48.69588 | 9.25243 | 2550 ft | 153 kts | 74° |
| 2026-04-25 09:09 | 48.69889 | 9.26888 | 2939 ft | 173 kts | 74° |
| 2026-04-25 09:09 | 48.70232 | 9.28751 | 3254 ft | 194 kts | 75° |
| 2026-04-25 09:09 | 48.70613 | 9.30814 | 3525 ft | 218 kts | 75° |
| 2026-04-25 09:10 | 48.71051 | 9.33149 | 3876 ft | 243 kts | 74° |
| 2026-04-25 09:10 | 48.71540 | 9.35729 | 4362 ft | 265 kts | 74° |
| 2026-04-25 09:10 | 48.72063 | 9.38462 | 5153 ft | 274 kts | 73° |
| 2026-04-25 09:10 | 48.72841 | 9.41102 | 6003 ft | 279 kts | 49° |
| 2026-04-25 09:11 | 48.76258 | 9.43637 | 7698 ft | 280 kts | 4° |
| 2026-04-25 09:11 | 48.78186 | 9.43347 | 8539 ft | 281 kts | 342° |
| 2026-04-25 09:11 | 48.79999 | 9.42337 | 9407 ft | 282 kts | 333° |
| 2026-04-25 09:12 | 48.81749 | 9.40955 | 10267 ft | 286 kts | 331° |
| 2026-04-25 09:12 | 48.83579 | 9.39560 | 10677 ft | 306 kts | 332° |
| 2026-04-25 09:12 | 48.85573 | 9.38109 | 10906 ft | 330 kts | 333° |
| 2026-04-25 09:12 | 48.87658 | 9.36409 | 11136 ft | 348 kts | 324° |
| 2026-04-25 09:13 | 48.89514 | 9.33992 | 11703 ft | 354 kts | 311° |
| 2026-04-25 09:13 | 48.90973 | 9.30967 | 12405 ft | 357 kts | 298° |
| 2026-04-25 09:13 | 48.91936 | 9.27485 | 13131 ft | 360 kts | 285° |
| 2026-04-25 09:13 | 48.92416 | 9.23742 | 13870 ft | 362 kts | 279° |
| 2026-04-25 09:14 | 48.92818 | 9.19945 | 14518 ft | 365 kts | 279° |
| 2026-04-25 09:14 | 48.93231 | 9.16172 | 15131 ft | 368 kts | 281° |
| 2026-04-25 09:14 | 48.94113 | 9.12514 | 15715 ft | 373 kts | 299° |
| 2026-04-25 09:14 | 48.95747 | 9.09440 | 16324 ft | 378 kts | 317° |
| 2026-04-25 09:15 | 48.97942 | 9.07194 | 16908 ft | 383 kts | 327° |
| 2026-04-25 09:15 | 49.00250 | 9.05136 | 17503 ft | 386 kts | 328° |
| 2026-04-25 09:15 | 49.02582 | 9.03069 | 18047 ft | 389 kts | 328° |
| 2026-04-25 09:15 | 49.04936 | 9.00986 | 18569 ft | 393 kts | 327° |
| 2026-04-25 09:16 | 49.07310 | 8.98884 | 19036 ft | 396 kts | 327° |
| 2026-04-25 09:16 | 49.09671 | 8.96789 | 19501 ft | 400 kts | 327° |
| 2026-04-25 09:16 | 49.12084 | 8.94643 | 19963 ft | 403 kts | 327° |
| 2026-04-25 09:16 | 49.14514 | 8.92472 | 20413 ft | 406 kts | 327° |
| 2026-04-25 09:17 | 49.19431 | 8.88058 | 21326 ft | 413 kts | 326° |
| 2026-04-25 09:17 | 49.21919 | 8.85822 | 21779 ft | 416 kts | 327° |
| 2026-04-25 09:17 | 49.24421 | 8.83572 | 22091 ft | 418 kts | 326° |
| 2026-04-25 09:18 | 49.26950 | 8.81297 | 22151 ft | 428 kts | 326° |
| 2026-04-25 09:18 | 49.29546 | 8.78952 | 22157 ft | 439 kts | 326° |
| 2026-04-25 09:18 | 49.32151 | 8.76596 | 22158 ft | 442 kts | 327° |
| 2026-04-25 09:18 | 49.34809 | 8.74196 | 22159 ft | 443 kts | 327° |
| 2026-04-25 09:19 | 49.37464 | 8.71799 | 22161 ft | 443 kts | 327° |
| 2026-04-25 09:19 | 49.40121 | 8.69396 | 22163 ft | 443 kts | 327° |
| 2026-04-25 09:19 | 49.42777 | 8.66989 | 22176 ft | 443 kts | 326° |
| 2026-04-25 09:19 | 49.45426 | 8.64587 | 22163 ft | 441 kts | 326° |
| 2026-04-25 09:20 | 49.48063 | 8.62194 | 22168 ft | 440 kts | 326° |
| 2026-04-25 09:20 | 49.50704 | 8.59799 | 22165 ft | 440 kts | 326° |
| 2026-04-25 09:20 | 49.53336 | 8.57404 | 22165 ft | 440 kts | 326° |
| 2026-04-25 09:20 | 49.55936 | 8.55035 | 22164 ft | 440 kts | 326° |
| 2026-04-25 09:21 | 49.58569 | 8.52628 | 22163 ft | 440 kts | 326° |
| 2026-04-25 09:21 | 49.61197 | 8.50220 | 22160 ft | 440 kts | 326° |
| 2026-04-25 09:21 | 49.63826 | 8.47808 | 22159 ft | 440 kts | 326° |
| 2026-04-25 09:21 | 49.66454 | 8.45401 | 22171 ft | 440 kts | 326° |
| 2026-04-25 09:22 | 49.69086 | 8.42991 | 22171 ft | 439 kts | 326° |
| 2026-04-25 09:22 | 49.71708 | 8.40574 | 22172 ft | 439 kts | 326° |
| 2026-04-25 09:22 | 49.74324 | 8.38153 | 22172 ft | 438 kts | 326° |
| 2026-04-25 09:22 | 49.76943 | 8.35734 | 22170 ft | 438 kts | 326° |
| 2026-04-25 09:23 | 49.79561 | 8.33321 | 22173 ft | 438 kts | 326° |
| 2026-04-25 09:23 | 49.82175 | 8.30911 | 22170 ft | 438 kts | 326° |
| 2026-04-25 09:23 | 49.84755 | 8.28523 | 22167 ft | 438 kts | 326° |
| 2026-04-25 09:23 | 49.87364 | 8.26103 | 22166 ft | 438 kts | 326° |
| 2026-04-25 09:24 | 49.89948 | 8.23709 | 22159 ft | 423 kts | 326° |
| 2026-04-25 09:24 | 49.92441 | 8.21407 | 22158 ft | 413 kts | 326° |
| 2026-04-25 09:24 | 49.94895 | 8.19136 | 22152 ft | 409 kts | 326° |
| 2026-04-25 09:24 | 49.97332 | 8.16869 | 22159 ft | 409 kts | 326° |
| 2026-04-25 09:25 | 49.99769 | 8.14594 | 22157 ft | 408 kts | 326° |
| 2026-04-25 09:25 | 50.02202 | 8.12312 | 22157 ft | 408 kts | 326° |
| 2026-04-25 09:25 | 50.04632 | 8.10035 | 22158 ft | 408 kts | 326° |
| 2026-04-25 09:25 | 50.07037 | 8.07790 | 22159 ft | 408 kts | 326° |
| 2026-04-25 09:26 | 50.09472 | 8.05518 | 22162 ft | 408 kts | 326° |
| 2026-04-25 09:26 | 50.11903 | 8.03238 | 22160 ft | 408 kts | 326° |
| 2026-04-25 09:26 | 50.14334 | 8.00951 | 22160 ft | 408 kts | 326° |
| 2026-04-25 09:26 | 50.16806 | 7.98619 | 21429 ft | 418 kts | 326° |
| 2026-04-25 09:27 | 50.19290 | 7.96281 | 20446 ft | 415 kts | 326° |
| 2026-04-25 09:27 | 50.21747 | 7.93967 | 19617 ft | 411 kts | 327° |
| 2026-04-25 09:27 | 50.24186 | 7.91670 | 18928 ft | 407 kts | 327° |
| 2026-04-25 09:27 | 50.26600 | 7.89390 | 18211 ft | 403 kts | 327° |
| 2026-04-25 09:28 | 50.28956 | 7.87162 | 17456 ft | 399 kts | 327° |
| 2026-04-25 09:28 | 50.31318 | 7.84926 | 16695 ft | 394 kts | 327° |
| 2026-04-25 09:28 | 50.33613 | 7.82752 | 15963 ft | 378 kts | 327° |
| 2026-04-25 09:28 | 50.35823 | 7.80655 | 15241 ft | 364 kts | 327° |
| 2026-04-25 09:29 | 50.37958 | 7.78628 | 14543 ft | 353 kts | 327° |
| 2026-04-25 09:29 | 50.40030 | 7.76659 | 13815 ft | 344 kts | 327° |
| 2026-04-25 09:29 | 50.42052 | 7.74736 | 13000 ft | 336 kts | 327° |
| 2026-04-25 09:29 | 50.44028 | 7.72852 | 12217 ft | 329 kts | 327° |
| 2026-04-25 09:30 | 50.45958 | 7.71007 | 11531 ft | 321 kts | 327° |
| 2026-04-25 09:30 | 50.47817 | 7.69231 | 10876 ft | 313 kts | 327° |
| 2026-04-25 09:30 | 50.49656 | 7.67475 | 10229 ft | 306 kts | 328° |
| 2026-04-25 09:30 | 50.51355 | 7.65541 | 9532 ft | 299 kts | 317° |
| 2026-04-25 09:31 | 50.52875 | 7.63365 | 8824 ft | 293 kts | 317° |
| 2026-04-25 09:31 | 50.54374 | 7.61230 | 8139 ft | 288 kts | 317° |
| 2026-04-25 09:31 | 50.55851 | 7.59133 | 7470 ft | 284 kts | 317° |
| 2026-04-25 09:31 | 50.57305 | 7.57068 | 6809 ft | 280 kts | 317° |
| 2026-04-25 09:32 | 50.58737 | 7.55030 | 6121 ft | 276 kts | 317° |
| 2026-04-25 09:32 | 50.60151 | 7.53018 | 5429 ft | 273 kts | 317° |
| 2026-04-25 09:32 | 50.61533 | 7.51047 | 4987 ft | 262 kts | 318° |
| 2026-04-25 09:32 | 50.62847 | 7.49170 | 4611 ft | 256 kts | 318° |
| 2026-04-25 09:33 | 50.64158 | 7.47297 | 4230 ft | 254 kts | 318° |
| 2026-04-25 09:33 | 50.65452 | 7.45448 | 3995 ft | 245 kts | 318° |
| 2026-04-25 09:33 | 50.66672 | 7.43701 | 3995 ft | 228 kts | 318° |
| 2026-04-25 09:33 | 50.67815 | 7.42063 | 4000 ft | 219 kts | 318° |
| 2026-04-25 09:34 | 50.68913 | 7.40489 | 4001 ft | 207 kts | 318° |
| 2026-04-25 09:34 | 50.69948 | 7.39007 | 4014 ft | 193 kts | 318° |
| 2026-04-25 09:34 | 50.70877 | 7.37673 | 4022 ft | 173 kts | 318° |
| 2026-04-25 09:34 | 50.71714 | 7.36464 | 3955 ft | 154 kts | 318° |
| 2026-04-25 09:35 | 50.72477 | 7.35361 | 3798 ft | 144 kts | 318° |
| 2026-04-25 09:35 | 50.73206 | 7.34313 | 3630 ft | 140 kts | 319° |
| 2026-04-25 09:35 | 50.73919 | 7.33288 | 3457 ft | 138 kts | 319° |
| 2026-04-25 09:35 | 50.74626 | 7.32272 | 3276 ft | 137 kts | 319° |
| 2026-04-25 09:36 | 50.75329 | 7.31261 | 3089 ft | 137 kts | 319° |
| 2026-04-25 09:36 | 50.76031 | 7.30252 | 2908 ft | 136 kts | 319° |
| 2026-04-25 09:36 | 50.76731 | 7.29246 | 2723 ft | 136 kts | 319° |
| 2026-04-25 09:36 | 50.77421 | 7.28253 | 2543 ft | 136 kts | 319° |
| 2026-04-25 09:37 | 50.78119 | 7.27248 | 2354 ft | 136 kts | 318° |
| 2026-04-25 09:37 | 50.78816 | 7.26244 | 2170 ft | 136 kts | 318° |
| 2026-04-25 09:37 | 50.79510 | 7.25245 | 1985 ft | 135 kts | 317° |
| 2026-04-25 09:37 | 50.80201 | 7.24248 | 1798 ft | 134 kts | 317° |
| 2026-04-25 09:38 | 50.80894 | 7.23249 | 1611 ft | 135 kts | 317° |
| 2026-04-25 09:38 | 50.81590 | 7.22245 | 1416 ft | 135 kts | 316° |
| 2026-04-25 09:38 | 50.82281 | 7.21248 | 1224 ft | 135 kts | 316° |
| 2026-04-25 09:38 | 50.82973 | 7.20248 | 1037 ft | 135 kts | 317° |
| 2026-04-25 09:39 | 50.83659 | 7.19259 | 843 ft | 135 kts | 317° |
| 2026-04-25 09:39 | 50.84353 | 7.18255 | 666 ft | 135 kts | 317° |
| 2026-04-25 09:39 | 50.85038 | 7.17265 | 478 ft | 132 kts | 316° |
| 2026-04-25 09:40 | 50.86313 | 7.15418 | 287 ft | 95 kts | 317° |
| 2026-04-25 09:40 | 50.86676 | 7.14894 | 271 ft | 46 kts | 317° |
| 2026-04-25 09:40 | 50.86823 | 7.14657 | 264 ft | 27 kts | 305° |
| 2026-04-25 09:40 | 50.86883 | 7.14367 | 259 ft | 29 kts | 279° |
| 2026-04-25 09:41 | 50.86940 | 7.14056 | 253 ft | 31 kts | 312° |
| 2026-04-25 09:41 | 50.87105 | 7.13814 | 242 ft | 34 kts | 317° |
| 2026-04-25 09:41 | 50.87281 | 7.13557 | 235 ft | 35 kts | 318° |
| 2026-04-25 09:41 | 50.87458 | 7.13300 | 233 ft | 34 kts | 317° |
| 2026-04-25 09:42 | 50.87629 | 7.13054 | 233 ft | 33 kts | 317° |
| 2026-04-25 09:42 | 50.87771 | 7.12846 | 232 ft | 23 kts | 317° |
| 2026-04-25 09:42 | 50.87769 | 7.12675 | 232 ft | 13 kts | 265° |
| 2026-04-25 09:42 | 50.87782 | 7.12522 | 233 ft | 15 kts | 288° |
| 2026-04-25 09:43 | 50.87802 | 7.12422 | 232 ft | 0 kts | 288° |